Time;durP1;ratioP1;P1;durP2;ratioP2;P2;SDS_P1;SDS_P2;PMS_P1;PMS_P2;Temp;Humidity;BMP_temperature;BMP_pressure;BME280_temperature;BME280_humidity;BME280_pressure;Samples;Min_cycle;Max_cycle;Signal;HPM_P1;HPM_P2
2022/09/26 00:01:06;;;;;;;1.30;1.10;;;16.50;53.80;;;;;;5002835;28;20486;-68
2022/09/26 00:03:32;;;;;;;1.30;1.10;;;16.50;52.50;;;;;;5003397;28;20184;-68
2022/09/26 00:06:02;;;;;;;1.30;1.20;;;16.40;53.00;;;;;;5003279;28;20475;-68
2022/09/26 00:08:28;;;;;;;1.30;1.10;;;16.40;52.80;;;;;;5003349;28;20458;-68
2022/09/26 00:10:59;;;;;;;1.30;1.10;;;16.40;52.80;;;;;;5003033;28;21120;-68
2022/09/26 00:13:26;;;;;;;1.30;1.10;;;16.30;52.50;;;;;;5003664;28;20187;-68
2022/09/26 00:15:53;;;;;;;1.30;1.10;;;16.20;52.40;;;;;;5010927;28;20463;-70
2022/09/26 00:18:19;;;;;;;1.30;1.10;;;16.20;52.10;;;;;;5008846;28;20921;-70
2022/09/26 00:20:45;;;;;;;1.30;1.10;;;16.20;51.70;;;;;;5005455;28;20443;-71
2022/09/26 00:23:11;;;;;;;1.30;1.10;;;16.10;51.90;;;;;;5010345;28;20430;-70
2022/09/26 00:25:36;;;;;;;1.30;1.20;;;16.10;52.40;;;;;;5007513;28;20202;-70
2022/09/26 00:28:02;;;;;;;1.30;1.10;;;16.10;52.00;;;;;;5007114;28;20191;-70
2022/09/26 00:30:27;;;;;;;1.30;1.10;;;16.00;52.10;;;;;;5010709;28;20212;-70
2022/09/26 00:32:53;;;;;;;1.30;1.17;;;16.00;52.20;;;;;;5005496;28;20198;-71
2022/09/26 00:35:18;;;;;;;1.30;1.20;;;15.90;51.90;;;;;;5007425;28;20214;-69
2022/09/26 00:37:44;;;;;;;1.40;1.33;;;15.90;52.20;;;;;;5002487;28;20178;-70
2022/09/26 00:40:10;;;;;;;1.30;1.17;;;15.90;52.30;;;;;;5004552;28;20191;-70
2022/09/26 00:42:36;;;;;;;1.30;1.10;;;16.10;50.90;;;;;;5000521;28;20268;-69
2022/09/26 00:45:02;;;;;;;1.30;1.10;;;16.20;50.90;;;;;;5004605;28;20579;-71
2022/09/26 00:47:37;;;;;;;1.30;1.10;;;16.10;50.70;;;;;;5002923;28;20564;-71
2022/09/26 00:50:15;;;;;;;1.30;1.00;;;16.20;50.40;;;;;;5003906;28;20426;-70
2022/09/26 00:52:50;;;;;;;1.30;1.10;;;15.90;50.70;;;;;;5010485;28;20855;-69
2022/09/26 00:55:19;;;;;;;1.30;1.13;;;15.90;50.90;;;;;;5002622;28;20448;-69
2022/09/26 00:57:56;;;;;;;1.30;1.10;;;15.90;51.10;;;;;;5002965;28;20443;-69
2022/09/26 01:00:22;;;;;;;1.30;1.10;;;15.80;51.20;;;;;;5004430;28;20420;-70
2022/09/26 01:02:50;;;;;;;1.30;1.10;;;15.70;51.80;;;;;;5006648;28;20437;-70
2022/09/26 01:05:19;;;;;;;1.30;1.20;;;15.70;52.40;;;;;;5003358;28;20449;-70
2022/09/26 01:07:45;;;;;;;1.30;1.10;;;15.80;51.70;;;;;;5002973;28;20914;-69
2022/09/26 01:10:11;;;;;;;1.40;1.23;;;15.90;52.50;;;;;;5009110;28;20420;-72
2022/09/26 01:12:37;;;;;;;1.30;1.10;;;15.90;51.50;;;;;;5005276;28;20468;-70
2022/09/26 01:15:06;;;;;;;1.30;1.20;;;15.90;51.30;;;;;;5009119;28;20248;-70
2022/09/26 01:17:32;;;;;;;1.30;1.10;;;15.90;51.60;;;;;;5004417;28;20428;-69
2022/09/26 01:20:40;;;;;;;1.50;1.30;;;15.90;51.20;;;;;;5007478;28;20437;-69
2022/09/26 01:23:37;;;;;;;1.30;1.10;;;15.90;51.00;;;;;;5009547;28;20436;-70
2022/09/26 01:26:21;;;;;;;1.30;1.10;;;15.70;51.50;;;;;;5001725;28;20469;-69
2022/09/26 01:28:56;;;;;;;1.30;1.10;;;15.50;52.70;;;;;;5010638;28;20934;-70
2022/09/26 01:31:33;;;;;;;1.30;1.10;;;15.50;52.90;;;;;;4999329;28;20528;-71
2022/09/26 01:34:09;;;;;;;1.30;1.10;;;15.70;51.80;;;;;;5008501;28;20514;-70
2022/09/26 01:36:50;;;;;;;1.30;1.10;;;15.50;51.90;;;;;;5009082;28;20461;-71
2022/09/26 01:39:27;;;;;;;1.30;1.10;;;15.60;52.50;;;;;;5013614;28;21047;-70
2022/09/26 01:42:14;;;;;;;1.30;1.10;;;15.60;52.30;;;;;;5013286;28;20422;-71
2022/09/26 01:44:54;;;;;;;1.30;1.10;;;15.80;52.20;;;;;;5002687;28;20424;-70
2022/09/26 01:47:19;;;;;;;1.30;1.10;;;15.80;51.70;;;;;;5005924;28;20485;-71
2022/09/26 01:49:57;;;;;;;1.30;1.00;;;15.80;51.80;;;;;;5006115;28;20935;-68
2022/09/26 01:52:56;;;;;;;1.30;1.10;;;15.80;52.70;;;;;;5005225;28;20233;-69
2022/09/26 01:55:36;;;;;;;1.30;1.10;;;15.90;53.10;;;;;;5005612;28;20445;-69
2022/09/26 01:58:17;;;;;;;1.30;1.10;;;15.90;52.30;;;;;;5006577;28;20432;-69
2022/09/26 02:00:46;;;;;;;1.30;1.07;;;16.00;51.80;;;;;;5002561;28;20483;-68
2022/09/26 02:03:17;;;;;;;1.30;1.13;;;16.10;50.50;;;;;;5010393;28;20930;-69
2022/09/26 02:05:50;;;;;;;1.30;1.10;;;16.20;50.10;;;;;;5002663;28;20532;-68
2022/09/26 02:08:23;;;;;;;1.30;1.20;;;16.20;50.30;;;;;;5010878;28;20451;-69
2022/09/26 02:10:58;;;;;;;1.30;1.20;;;16.40;48.50;;;;;;5013559;28;20835;-68
2022/09/26 02:13:37;;;;;;;1.30;1.10;;;16.40;48.70;;;;;;5005096;28;20501;-68
2022/09/26 02:16:11;;;;;;;1.30;1.20;;;16.40;49.40;;;;;;4999396;28;20460;-68
2022/09/26 02:18:47;;;;;;;1.30;1.13;;;16.30;49.60;;;;;;5013113;28;20979;-68
2022/09/26 02:21:17;;;;;;;1.30;1.20;;;16.10;51.50;;;;;;5005943;28;20424;-68
2022/09/26 02:23:45;;;;;;;1.30;1.10;;;16.00;51.50;;;;;;5013318;28;20421;-68
2022/09/26 02:26:10;;;;;;;1.30;1.10;;;16.00;51.40;;;;;;5005142;28;20487;-68
2022/09/26 02:28:36;;;;;;;1.30;1.20;;;15.90;51.90;;;;;;5013457;28;20453;-69
2022/09/26 02:31:04;;;;;;;1.30;1.10;;;15.90;52.20;;;;;;5013070;28;20181;-68
2022/09/26 02:33:30;;;;;;;1.30;1.20;;;15.80;52.80;;;;;;5012900;28;20219;-68
2022/09/26 02:35:56;;;;;;;1.30;1.10;;;15.80;53.20;;;;;;5004976;28;20968;-68
2022/09/26 02:38:28;;;;;;;1.30;1.10;;;15.90;53.40;;;;;;5013534;28;20178;-68
2022/09/26 02:41:28;;;;;;;1.30;1.10;;;15.90;52.90;;;;;;5004836;28;20520;-68
2022/09/26 02:44:24;;;;;;;1.30;1.20;;;15.90;53.00;;;;;;5004542;28;20440;-68
2022/09/26 02:47:01;;;;;;;1.30;1.00;;;16.00;51.10;;;;;;5004524;28;21585;-68
2022/09/26 02:49:48;;;;;;;1.30;1.30;;;16.00;51.60;;;;;;5005065;28;20429;-69
2022/09/26 02:52:33;;;;;;;1.30;1.10;;;16.30;50.10;;;;;;5006921;28;20454;-69
2022/09/26 02:55:13;;;;;;;1.30;1.30;;;16.00;51.60;;;;;;5004614;28;20891;-69
2022/09/26 02:58:07;;;;;;;1.30;1.17;;;15.90;51.30;;;;;;5012359;28;20423;-69
2022/09/26 03:00:43;;;;;;;1.30;1.10;;;15.90;52.40;;;;;;5008860;28;20463;-69
2022/09/26 03:03:29;;;;;;;1.30;1.10;;;15.90;52.20;;;;;;5005608;28;20427;-69
2022/09/26 03:05:57;;;;;;;1.30;1.20;;;15.90;52.20;;;;;;5009837;28;20543;-69
2022/09/26 03:08:26;;;;;;;1.30;1.20;;;15.90;52.90;;;;;;5001604;28;20419;-71
2022/09/26 03:10:55;;;;;;;1.30;1.10;;;16.00;52.20;;;;;;5009946;28;20456;-69
2022/09/26 03:13:22;;;;;;;1.30;1.10;;;16.10;51.60;;;;;;5012480;28;20471;-70
2022/09/26 03:15:53;;;;;;;1.30;1.07;;;16.10;51.90;;;;;;5003699;28;20550;-70
2022/09/26 03:18:24;;;;;;;1.30;1.10;;;16.00;52.20;;;;;;5004567;28;20850;-71
2022/09/26 03:20:53;;;;;;;1.30;1.20;;;16.10;52.60;;;;;;5003657;28;20468;-70
2022/09/26 03:23:24;;;;;;;1.30;1.10;;;16.10;51.00;;;;;;5003951;28;20444;-70
2022/09/26 03:26:04;;;;;;;1.30;1.10;;;16.10;51.50;;;;;;5012000;28;20492;-71
2022/09/26 03:28:29;;;;;;;1.30;1.13;;;16.10;51.50;;;;;;5001016;28;20454;-72
2022/09/26 03:30:55;;;;;;;1.30;1.10;;;16.00;51.90;;;;;;5009100;28;20929;-70
2022/09/26 03:33:20;;;;;;;1.30;1.10;;;16.00;52.10;;;;;;5012183;28;20283;-70
2022/09/26 03:35:46;;;;;;;1.30;1.13;;;15.80;52.70;;;;;;5012263;28;20202;-69
2022/09/26 03:38:11;;;;;;;1.30;1.10;;;15.90;52.80;;;;;;5004080;28;20649;-71
2022/09/26 03:40:40;;;;;;;1.30;1.10;;;15.90;52.50;;;;;;5004171;28;20258;-70
2022/09/26 03:43:05;;;;;;;1.30;1.20;;;15.90;53.10;;;;;;5011466;28;20182;-72
2022/09/26 03:45:31;;;;;;;1.30;1.10;;;15.80;52.00;;;;;;5012026;28;21032;-70
2022/09/26 03:47:57;;;;;;;1.30;1.10;;;15.90;52.70;;;;;;5012041;28;20185;-70
2022/09/26 03:50:24;;;;;;;1.30;1.20;;;15.90;53.30;;;;;;5011816;28;20182;-70
2022/09/26 03:52:49;;;;;;;1.30;1.10;;;15.90;52.60;;;;;;5004993;28;20466;-70
2022/09/26 03:55:15;;;;;;;1.30;1.10;;;15.80;52.50;;;;;;5009600;28;20788;-70
2022/09/26 03:57:40;;;;;;;1.30;1.20;;;15.80;52.60;;;;;;5006789;28;20217;-70
2022/09/26 04:00:07;;;;;;;1.30;1.10;;;15.80;53.20;;;;;;5008625;28;20183;-71
2022/09/26 04:02:33;;;;;;;1.30;1.20;;;15.80;52.80;;;;;;5003089;28;20260;-71
2022/09/26 04:04:58;;;;;;;1.30;1.13;;;16.20;53.30;;;;;;5004750;28;20445;-70
2022/09/26 04:07:24;;;;;;;1.30;1.10;;;15.70;52.70;;;;;;5010248;28;20444;-70
2022/09/26 04:09:50;;;;;;;1.30;1.10;;;15.70;52.80;;;;;;5011458;28;20253;-70
2022/09/26 04:12:16;;;;;;;1.30;1.20;;;15.70;53.30;;;;;;5002725;28;21224;-70
2022/09/26 04:14:45;;;;;;;1.30;1.10;;;15.70;53.00;;;;;;5011104;28;20257;-70
2022/09/26 04:17:11;;;;;;;1.30;1.20;;;15.70;53.00;;;;;;5011138;28;20190;-70
2022/09/26 04:19:37;;;;;;;1.30;1.10;;;15.80;52.10;;;;;;5003155;28;20424;-70
2022/09/26 04:22:03;;;;;;;1.30;1.00;;;15.80;52.40;;;;;;5010758;28;20841;-71
2022/09/26 04:24:29;;;;;;;1.30;1.10;;;15.80;52.40;;;;;;5009998;28;20425;-70
2022/09/26 04:26:55;;;;;;;1.30;1.00;;;15.90;52.10;;;;;;5011485;28;20429;-70
2022/09/26 04:29:20;;;;;;;1.30;1.10;;;15.90;51.30;;;;;;5003340;28;21137;-70
2022/09/26 04:31:46;;;;;;;1.30;1.07;;;15.90;51.30;;;;;;5007403;28;20259;-70
2022/09/26 04:34:13;;;;;;;1.47;1.30;;;15.90;51.30;;;;;;5006461;28;20180;-70
2022/09/26 04:36:40;;;;;;;1.30;1.20;;;15.90;51.70;;;;;;5002672;28;20872;-71
2022/09/26 04:39:06;;;;;;;1.30;1.10;;;15.90;51.10;;;;;;5011206;28;20525;-70
2022/09/26 04:41:32;;;;;;;1.30;1.20;;;15.90;51.30;;;;;;5010050;28;20480;-70
2022/09/26 04:43:58;;;;;;;1.30;1.10;;;15.80;52.20;;;;;;5003361;28;20847;-70
2022/09/26 04:46:26;;;;;;;1.30;1.00;;;15.80;52.10;;;;;;5010667;28;20489;-70
2022/09/26 04:48:54;;;;;;;1.30;1.10;;;15.70;52.30;;;;;;5002916;28;20428;-70
2022/09/26 04:51:22;;;;;;;1.30;1.00;;;15.90;53.10;;;;;;5002971;28;20964;-70
2022/09/26 04:53:49;;;;;;;1.30;1.10;;;15.60;52.70;;;;;;5007308;28;20494;-71
2022/09/26 04:56:17;;;;;;;1.30;1.10;;;16.00;53.70;;;;;;5004792;28;20440;-70
2022/09/26 04:58:43;;;;;;;1.30;1.10;;;15.60;53.00;;;;;;5010291;28;20507;-70
2022/09/26 05:01:14;;;;;;;1.30;1.10;;;15.70;52.80;;;;;;5010608;28;20426;-70
2022/09/26 05:03:40;;;;;;;1.30;1.17;;;15.70;52.40;;;;;;5010173;28;20432;-71
2022/09/26 05:06:07;;;;;;;1.30;1.10;;;15.70;52.10;;;;;;4999076;28;20448;-71
2022/09/26 05:08:35;;;;;;;1.30;1.07;;;15.80;52.20;;;;;;5001158;28;20471;-70
2022/09/26 05:11:01;;;;;;;1.30;1.10;;;15.80;51.70;;;;;;5013514;28;20435;-71
2022/09/26 05:13:27;;;;;;;1.30;1.20;;;15.80;51.40;;;;;;5006411;28;20464;-70
2022/09/26 05:15:54;;;;;;;1.30;1.00;;;15.90;52.00;;;;;;5014585;28;21033;-70
2022/09/26 05:18:22;;;;;;;1.30;1.03;;;15.90;51.90;;;;;;5014235;28;20420;-70
2022/09/26 05:20:48;;;;;;;1.30;1.10;;;15.70;52.20;;;;;;5005713;28;20503;-70
2022/09/26 05:26:18;;;;;;;1.30;1.10;;;15.60;52.60;;;;;;5006145;28;20488;-70
2022/09/26 05:26:21;;;;;;;1.30;1.10;;;15.70;52.00;;;;;;5014429;28;20445;-70
2022/09/26 05:28:54;;;;;;;1.30;1.10;;;15.70;52.00;;;;;;5006402;28;20420;-70
2022/09/26 05:31:23;;;;;;;1.30;1.20;;;15.70;51.90;;;;;;5006398;28;20431;-71
2022/09/26 05:33:50;;;;;;;1.30;1.10;;;15.60;52.00;;;;;;5006248;28;20473;-70
2022/09/26 05:36:16;;;;;;;1.30;1.10;;;15.70;51.80;;;;;;5005952;28;20480;-70
2022/09/26 05:38:42;;;;;;;1.30;1.20;;;15.70;51.90;;;;;;5006241;28;20511;-70
2022/09/26 05:41:08;;;;;;;1.30;1.10;;;15.70;51.30;;;;;;5012279;28;20511;-70
2022/09/26 05:43:33;;;;;;;1.30;1.20;;;15.70;51.90;;;;;;5007550;28;20240;-70
2022/09/26 05:46:03;;;;;;;1.30;1.10;;;15.60;52.00;;;;;;5013617;28;20229;-70
2022/09/26 05:48:30;;;;;;;1.30;1.10;;;15.60;51.60;;;;;;5006778;28;20178;-70
2022/09/26 05:50:55;;;;;;;1.30;1.13;;;15.70;51.60;;;;;;5005458;28;20426;-71
2022/09/26 05:53:21;;;;;;;1.30;1.10;;;15.60;52.10;;;;;;5005394;28;20466;-70
2022/09/26 05:55:50;;;;;;;1.30;1.07;;;15.60;51.90;;;;;;5013972;28;20194;-70
2022/09/26 05:58:19;;;;;;;1.30;1.10;;;15.70;51.90;;;;;;5005471;28;20189;-70
2022/09/26 06:00:48;;;;;;;1.30;1.10;;;15.70;51.40;;;;;;5008288;28;20427;-70
2022/09/26 06:03:14;;;;;;;1.30;1.07;;;15.80;51.60;;;;;;5003287;28;20424;-70
2022/09/26 06:05:41;;;;;;;1.50;1.30;;;15.80;51.70;;;;;;5013482;28;20965;-70
2022/09/26 06:08:08;;;;;;;1.30;1.10;;;15.70;52.30;;;;;;5013798;28;20435;-70
2022/09/26 06:10:35;;;;;;;1.30;1.20;;;15.70;52.20;;;;;;5005701;28;20426;-70
2022/09/26 06:13:02;;;;;;;1.30;1.10;;;15.80;52.90;;;;;;5012941;28;20492;-70
2022/09/26 06:15:31;;;;;;;1.30;1.00;;;15.50;52.30;;;;;;5003541;28;20474;-71
2022/09/26 06:18:03;;;;;;;1.30;1.10;;;15.80;52.90;;;;;;5002048;28;20429;-70
2022/09/26 06:20:29;;;;;;;1.30;1.10;;;15.80;53.00;;;;;;4999712;28;20417;-70
2022/09/26 06:22:56;;;;;;;1.30;1.17;;;15.90;52.30;;;;;;5000541;28;20428;-71
2022/09/26 06:25:21;;;;;;;1.30;1.27;;;16.00;51.90;;;;;;5004748;28;20956;-72
2022/09/26 06:27:47;;;;;;;1.30;1.00;;;16.10;52.50;;;;;;5005141;28;20430;-70
2022/09/26 06:30:13;;;;;;;1.30;1.10;;;15.90;52.30;;;;;;5012844;28;20175;-70
2022/09/26 06:32:39;;;;;;;1.30;1.13;;;15.90;52.10;;;;;;5004748;28;20285;-70
2022/09/26 06:35:06;;;;;;;1.30;1.20;;;15.90;51.90;;;;;;5012945;28;20445;-70
2022/09/26 06:37:31;;;;;;;1.30;1.10;;;15.90;52.00;;;;;;5005133;28;20181;-70
2022/09/26 06:39:57;;;;;;;1.30;1.10;;;15.90;52.40;;;;;;5013222;28;20475;-70
2022/09/26 06:42:24;;;;;;;1.30;1.10;;;16.00;51.90;;;;;;5005056;28;20183;-70
2022/09/26 06:44:49;;;;;;;1.30;1.20;;;15.90;51.80;;;;;;5009231;28;20211;-70
2022/09/26 06:47:16;;;;;;;1.30;1.00;;;16.00;51.80;;;;;;5008307;28;20428;-69
2022/09/26 06:49:44;;;;;;;1.30;1.00;;;16.00;51.80;;;;;;5004559;28;20662;-70
2022/09/26 06:52:10;;;;;;;1.30;1.10;;;16.00;51.60;;;;;;5012542;28;20468;-70
2022/09/26 06:54:36;;;;;;;1.30;1.27;;;16.10;51.60;;;;;;5004055;28;20424;-70
2022/09/26 06:57:02;;;;;;;1.30;1.20;;;16.20;50.60;;;;;;5008293;28;20418;-70
2022/09/26 06:59:27;;;;;;;1.30;1.13;;;16.20;50.40;;;;;;5011850;28;20170;-69
2022/09/26 07:01:53;;;;;;;1.30;1.10;;;16.30;49.20;;;;;;5004041;28;20183;-70
2022/09/26 07:04:18;;;;;;;1.30;1.17;;;16.40;49.50;;;;;;5012616;28;20178;-70
2022/09/26 07:06:44;;;;;;;1.30;1.27;;;16.50;48.30;;;;;;5004350;28;20222;-70
2022/09/26 07:09:09;;;;;;;1.30;1.20;;;16.50;48.20;;;;;;5012222;28;20176;-70
2022/09/26 07:11:36;;;;;;;1.30;1.10;;;16.40;49.90;;;;;;5004190;28;20170;-70
2022/09/26 07:14:02;;;;;;;1.30;1.10;;;16.50;49.60;;;;;;5012209;28;20207;-70
2022/09/26 07:16:28;;;;;;;1.30;1.20;;;16.60;49.40;;;;;;5012486;28;20464;-70
2022/09/26 07:18:54;;;;;;;1.30;1.10;;;16.60;50.00;;;;;;5002617;28;20434;-70
2022/09/26 07:21:20;;;;;;;1.30;1.00;;;16.60;47.40;;;;;;5005545;28;20418;-70
2022/09/26 07:23:45;;;;;;;1.30;1.20;;;16.60;47.80;;;;;;5003769;28;20861;-71
2022/09/26 07:26:11;;;;;;;1.30;1.13;;;16.70;47.40;;;;;;5003969;28;20201;-71
2022/09/26 07:28:37;;;;;;;1.30;1.07;;;16.70;47.90;;;;;;5012447;28;20183;-70
2022/09/26 07:31:03;;;;;;;1.30;1.10;;;16.80;48.00;;;;;;5001143;28;20670;-70
2022/09/26 07:33:28;;;;;;;1.30;1.10;;;16.70;47.40;;;;;;5005580;28;20536;-70
2022/09/26 07:35:55;;;;;;;1.30;1.20;;;16.80;46.10;;;;;;5011709;28;20444;-70
2022/09/26 07:38:21;;;;;;;1.30;1.10;;;16.80;48.00;;;;;;5004694;28;20228;-70
2022/09/26 07:40:52;;;;;;;1.30;1.10;;;16.90;47.50;;;;;;5011925;28;20831;-70
2022/09/26 07:43:19;;;;;;;1.30;1.13;;;16.90;46.60;;;;;;5011291;28;20177;-71
2022/09/26 07:51:13;;;;;;;1.30;1.13;;;17.00;43.00;;;;;;5003184;28;20457;-70
2022/09/26 07:53:40;;;;;;;1.30;1.13;;;17.00;41.70;;;;;;5011757;28;20570;-70
2022/09/26 07:56:08;;;;;;;1.30;1.10;;;17.00;46.20;;;;;;4994200;28;20284;-71
2022/09/26 07:58:42;;;;;;;1.30;1.10;;;17.10;44.20;;;;;;4994098;28;20827;-71
2022/09/26 08:01:10;;;;;;;1.30;1.20;;;17.20;45.40;;;;;;5003085;28;20839;-70
2022/09/26 08:03:43;;;;;;;1.37;1.30;;;17.40;44.30;;;;;;5002944;28;20428;-70
2022/09/26 08:06:09;;;;;;;1.30;1.10;;;17.40;39.70;;;;;;5011232;28;20966;-70
2022/09/26 08:08:35;;;;;;;1.30;1.10;;;17.10;40.20;;;;;;5003299;28;20457;-70
2022/09/26 08:11:01;;;;;;;1.30;1.10;;;17.40;39.70;;;;;;5010894;28;20207;-70
2022/09/26 08:13:28;;;;;;;1.30;1.20;;;17.70;39.50;;;;;;5003207;28;20899;-70
2022/09/26 08:15:55;;;;;;;1.30;1.20;;;17.70;37.20;;;;;;5003082;28;20464;-70
2022/09/26 08:18:21;;;;;;;1.30;1.13;;;17.70;35.00;;;;;;5011048;28;20431;-71
2022/09/26 08:20:47;;;;;;;1.30;1.10;;;17.60;35.00;;;;;;5011065;28;20426;-70
2022/09/26 08:23:15;;;;;;;1.30;1.10;;;17.50;37.60;;;;;;5011260;28;20421;-70
2022/09/26 08:25:41;;;;;;;1.30;1.20;;;17.70;36.50;;;;;;5010683;28;20444;-70
2022/09/26 08:28:09;;;;;;;1.30;1.20;;;17.60;35.10;;;;;;5006928;28;20421;-70
2022/09/26 08:30:34;;;;;;;1.30;1.10;;;17.60;37.30;;;;;;5008010;28;20450;-70
2022/09/26 08:33:00;;;;;;;1.30;1.20;;;17.60;38.10;;;;;;5002150;28;20464;-70
2022/09/26 08:35:30;;;;;;;1.30;1.13;;;17.30;34.50;;;;;;5009978;28;20200;-70
2022/09/26 08:38:00;;;;;;;1.30;1.13;;;17.10;37.30;;;;;;5009736;28;20424;-70
2022/09/26 08:40:34;;;;;;;1.30;1.20;;;17.10;34.00;;;;;;5011190;28;20904;-70
2022/09/26 08:43:09;;;;;;;1.30;1.10;;;16.60;35.60;;;;;;5009186;28;20412;-69
2022/09/26 08:48:50;;;;;;;1.30;1.10;;;16.50;37.20;;;;;;5006959;28;20419;-70
2022/09/26 08:51:28;;;;;;;1.30;1.13;;;16.70;34.90;;;;;;5003536;28;20421;-70
2022/09/26 08:54:15;;;;;;;1.30;1.13;;;16.70;35.40;;;;;;5002319;28;21022;-70
2022/09/26 08:56:47;;;;;;;1.30;1.20;;;16.60;35.80;;;;;;5003631;28;20499;-70
2022/09/26 08:59:44;;;;;;;1.30;1.20;;;16.60;35.70;;;;;;5002674;28;20431;-69
2022/09/26 09:02:28;;;;;;;1.30;1.20;;;16.20;37.30;;;;;;5009608;28;20426;-69
2022/09/26 09:05:07;;;;;;;1.30;1.13;;;16.00;37.00;;;;;;5002093;28;20949;-71
2022/09/26 09:07:33;;;;;;;1.37;1.27;;;16.10;38.00;;;;;;5004785;28;20782;-70
2022/09/26 09:10:03;;;;;;;1.30;1.20;;;16.30;36.80;;;;;;5009822;28;20420;-70
2022/09/26 09:12:44;;;;;;;1.30;1.20;;;16.60;37.20;;;;;;5003601;28;20206;-69
2022/09/26 09:15:48;;;;;;;1.30;1.20;;;16.50;36.30;;;;;;5002086;28;20481;-70
2022/09/26 09:18:45;;;;;;;1.30;1.20;;;16.80;36.40;;;;;;5000093;28;21077;-70
2022/09/26 09:21:39;;;;;;;1.30;1.10;;;17.40;34.80;;;;;;5008555;28;20425;-70
2022/09/26 09:24:26;;;;;;;1.30;1.30;;;17.60;34.50;;;;;;5007928;28;20423;-70
2022/09/26 09:27:12;;;;;;;1.30;1.10;;;17.20;36.10;;;;;;5006108;28;20443;-69
2022/09/26 09:30:10;;;;;;;1.30;1.20;;;17.90;35.20;;;;;;5000282;28;20468;-70
2022/09/26 09:32:50;;;;;;;1.40;1.20;;;17.90;35.20;;;;;;4997922;28;20458;-70
2022/09/26 09:35:19;;;;;;;1.30;1.10;;;18.20;34.40;;;;;;4999871;28;20447;-70
2022/09/26 09:37:52;;;;;;;1.30;1.10;;;17.70;33.90;;;;;;4998264;28;20513;-69
2022/09/26 09:40:30;;;;;;;1.30;1.20;;;16.80;37.50;;;;;;5000748;28;20420;-69
2022/09/26 09:43:25;;;;;;;1.30;1.10;;;17.10;35.30;;;;;;5000007;28;21014;-70
2022/09/26 09:45:54;;;;;;;1.30;1.10;;;17.20;34.10;;;;;;4992714;28;20458;-70
2022/09/26 09:48:20;;;;;;;1.40;1.23;;;17.40;34.30;;;;;;4999442;28;20440;-70
2022/09/26 09:51:02;;;;;;;1.30;1.10;;;17.60;34.10;;;;;;4998609;28;20428;-70
2022/09/26 09:54:12;;;;;;;1.30;1.20;;;17.70;33.60;;;;;;5000652;28;20458;-69
2022/09/26 09:56:44;;;;;;;1.37;1.20;;;17.70;34.70;;;;;;4969217;28;20600;-70
2022/09/26 09:59:27;;;;;;;1.30;1.20;;;18.10;34.50;;;;;;4995810;28;20862;-70
2022/09/26 10:02:10;;;;;;;1.30;1.20;;;18.50;33.80;;;;;;5002070;28;20418;-69
2022/09/26 10:04:48;;;;;;;1.30;1.10;;;18.80;33.40;;;;;;5004731;28;20434;-70
2022/09/26 10:07:13;;;;;;;1.30;1.10;;;18.40;30.20;;;;;;5014199;28;20438;-70
2022/09/26 10:09:42;;;;;;;1.30;1.20;;;18.50;31.50;;;;;;5013420;28;20437;-70
2022/09/26 10:12:19;;;;;;;1.30;1.10;;;17.80;31.10;;;;;;5013303;28;20185;-70
2022/09/26 10:15:01;;;;;;;1.30;1.20;;;17.00;32.70;;;;;;5013460;28;20529;-71
2022/09/26 10:17:27;;;;;;;1.30;1.20;;;16.90;33.50;;;;;;5006742;28;20427;-70
2022/09/26 10:19:53;;;;;;;1.30;1.10;;;17.00;32.40;;;;;;5004138;28;20424;-69
2022/09/26 10:22:28;;;;;;;1.30;1.20;;;17.30;33.60;;;;;;5005592;28;20935;-69
2022/09/26 10:25:07;;;;;;;1.30;1.10;;;18.10;32.30;;;;;;5008326;28;20202;-70
2022/09/26 10:27:38;;;;;;;1.30;1.13;;;18.50;30.30;;;;;;5005156;28;20978;-69
2022/09/26 10:30:24;;;;;;;1.30;1.17;;;18.30;30.00;;;;;;5003332;28;20409;-70
2022/09/26 10:32:53;;;;;;;1.30;1.10;;;18.20;31.10;;;;;;5003199;28;20551;-71
2022/09/26 10:35:23;;;;;;;1.30;1.20;;;18.60;30.90;;;;;;5000061;28;20496;-70
2022/09/26 10:37:59;;;;;;;1.30;1.20;;;19.20;29.30;;;;;;5011942;28;20430;-70
2022/09/26 10:40:44;;;;;;;1.30;1.10;;;19.30;29.80;;;;;;5005092;28;20861;-71
2022/09/26 10:43:37;;;;;;;1.30;1.20;;;19.50;28.60;;;;;;5001887;28;20425;-70
2022/09/26 10:46:15;;;;;;;1.30;1.10;;;19.30;28.20;;;;;;5005873;28;20530;-70
2022/09/26 10:48:46;;;;;;;1.30;1.10;;;19.80;29.20;;;;;;5004739;28;20427;-70
2022/09/26 10:51:21;;;;;;;1.30;1.20;;;19.70;27.00;;;;;;5012829;28;20429;-70
2022/09/26 10:53:51;;;;;;;1.30;1.10;;;19.90;26.40;;;;;;5010263;28;20455;-71
2022/09/26 10:56:25;;;;;;;1.30;1.10;;;20.00;25.60;;;;;;5002055;28;20959;-70
2022/09/26 10:58:56;;;;;;;1.30;1.20;;;20.20;25.00;;;;;;5011605;28;20418;-70
2022/09/26 11:01:25;;;;;;;1.30;1.17;;;20.10;26.10;;;;;;5004670;28;20423;-69
2022/09/26 11:03:54;;;;;;;1.30;1.13;;;19.00;26.00;;;;;;5010393;28;20962;-70
2022/09/26 11:06:42;;;;;;;1.30;1.10;;;18.80;27.70;;;;;;5001168;28;20453;-69
2022/09/26 11:09:10;;;;;;;1.30;1.20;;;18.80;26.60;;;;;;5001243;28;20447;-69
2022/09/26 11:11:37;;;;;;;1.30;1.20;;;18.30;28.60;;;;;;5001147;28;20431;-70
2022/09/26 11:14:07;;;;;;;1.30;1.10;;;18.90;28.00;;;;;;5000460;28;20571;-69
2022/09/26 11:16:43;;;;;;;1.30;1.00;;;18.60;28.10;;;;;;5008302;28;20455;-69
2022/09/26 11:19:59;;;;;;;1.30;1.13;;;18.80;27.70;;;;;;5003869;28;20502;-70
2022/09/26 11:22:36;;;;;;;1.30;1.13;;;18.90;27.60;;;;;;5005569;28;21012;-71
2022/09/26 11:25:02;;;;;;;1.30;1.20;;;18.10;28.50;;;;;;5003749;28;20456;-70
2022/09/26 11:27:42;;;;;;;1.30;1.20;;;17.80;29.70;;;;;;5012460;28;20421;-70
2022/09/26 11:30:12;;;;;;;1.30;1.10;;;18.30;29.10;;;;;;5001221;28;20478;-70
2022/09/26 11:32:41;;;;;;;1.30;1.10;;;18.70;28.40;;;;;;5000181;28;20886;-70
2022/09/26 11:35:32;;;;;;;1.30;1.10;;;18.50;28.50;;;;;;5003601;28;20447;-70
2022/09/26 11:38:22;;;;;;;1.30;1.20;;;19.80;28.00;;;;;;5002735;28;20424;-71
2022/09/26 11:41:06;;;;;;;1.30;1.10;;;20.20;25.70;;;;;;5011285;28;20420;-70
2022/09/26 11:43:43;;;;;;;1.30;1.20;;;20.60;25.50;;;;;;5011936;28;20816;-70
2022/09/26 11:46:33;;;;;;;1.30;1.20;;;21.20;25.80;;;;;;5003867;28;20468;-70
2022/09/26 11:49:12;;;;;;;1.30;1.20;;;21.30;25.60;;;;;;5011921;28;20869;-70
2022/09/26 11:52:06;;;;;;;1.30;1.10;;;21.30;24.70;;;;;;5011756;28;20417;-70
2022/09/26 11:54:45;;;;;;;1.30;1.20;;;20.50;25.10;;;;;;5000108;28;20419;-70
2022/09/26 11:57:37;;;;;;;1.30;1.07;;;20.60;25.70;;;;;;5003308;28;20441;-70
2022/09/26 12:00:23;;;;;;;1.30;1.20;;;21.30;24.20;;;;;;5009955;28;20427;-70
2022/09/26 12:03:19;;;;;;;1.30;1.20;;;20.90;25.00;;;;;;5007538;28;20415;-70
2022/09/26 12:05:48;;;;;;;1.30;1.20;;;21.40;24.50;;;;;;5011765;28;20895;-70
2022/09/26 12:08:46;;;;;;;1.30;1.10;;;22.00;23.20;;;;;;5007390;28;20462;-70
2022/09/26 12:11:18;;;;;;;1.30;1.20;;;20.80;24.30;;;;;;5006756;28;20416;-70
2022/09/26 12:14:02;;;;;;;1.30;1.13;;;19.80;26.70;;;;;;5003219;28;20480;-70
2022/09/26 12:16:34;;;;;;;1.30;1.20;;;19.50;28.00;;;;;;5004436;28;20458;-70
2022/09/26 12:19:04;;;;;;;1.30;1.20;;;18.80;27.50;;;;;;5002888;28;20426;-70
2022/09/26 12:25:09;;;;;;;1.30;1.13;;;18.60;27.40;;;;;;5011325;28;21057;-71
2022/09/26 12:27:44;;;;;;;1.30;1.20;;;18.70;26.70;;;;;;5005208;28;20435;-70
2022/09/26 12:30:15;;;;;;;1.30;1.20;;;19.00;26.50;;;;;;5006532;28;20432;-70
2022/09/26 12:32:55;;;;;;;1.30;1.20;;;19.20;25.40;;;;;;5010824;28;20490;-69
2022/09/26 12:35:27;;;;;;;1.30;1.10;;;18.80;24.40;;;;;;5002734;28;20448;-70
2022/09/26 12:38:40;;;;;;;1.30;1.20;;;18.70;25.00;;;;;;5009956;28;20481;-70
2022/09/26 12:41:13;;;;;;;1.30;1.10;;;18.50;25.80;;;;;;5007904;28;20471;-70
2022/09/26 12:43:53;;;;;;;1.30;1.13;;;19.00;25.70;;;;;;5003094;28;20413;-70
2022/09/26 12:46:52;;;;;;;1.30;1.20;;;18.30;25.10;;;;;;5010827;28;20494;-70
2022/09/26 12:49:26;;;;;;;1.30;1.00;;;17.90;26.70;;;;;;5002856;28;20941;-70
2022/09/26 12:51:57;;;;;;;1.30;1.17;;;17.60;27.40;;;;;;5010691;28;20426;-70
2022/09/26 12:54:39;;;;;;;1.30;1.10;;;17.70;26.80;;;;;;5010816;28;20449;-69
2022/09/26 12:57:27;;;;;;;1.30;1.20;;;17.30;27.70;;;;;;5003407;28;20414;-70
2022/09/26 13:00:19;;;;;;;1.30;1.20;;;16.90;30.40;;;;;;4999659;28;20410;-69
2022/09/26 13:03:02;;;;;;;1.30;1.20;;;16.00;35.00;;;;;;5003873;28;20460;-70
2022/09/26 13:05:59;;;;;;;1.30;1.20;;;15.60;37.20;;;;;;5009522;28;20499;-69
2022/09/26 13:08:57;;;;;;;1.33;1.20;;;15.40;37.80;;;;;;5011471;28;20915;-71
2022/09/26 13:11:29;;;;;;;1.40;1.20;;;15.20;38.90;;;;;;5010882;28;20435;-69
2022/09/26 13:14:13;;;;;;;1.30;1.20;;;15.10;39.10;;;;;;5010357;28;20474;-69
2022/09/26 13:17:25;;;;;;;1.30;1.10;;;15.10;40.10;;;;;;5004381;28;20456;-69
2022/09/26 13:20:13;;;;;;;1.30;1.10;;;15.90;37.80;;;;;;4959884;28;20474;-70
2022/09/26 13:22:54;;;;;;;1.30;1.10;;;16.40;36.40;;;;;;4969038;28;20521;-70
2022/09/26 13:25:34;;;;;;;1.30;1.10;;;15.90;37.80;;;;;;4969116;28;20454;-70
2022/09/26 13:28:11;;;;;;;1.30;1.10;;;15.80;37.80;;;;;;4969422;28;20869;-70
2022/09/26 13:30:45;;;;;;;1.40;1.20;;;16.20;36.70;;;;;;4972442;28;20465;-70